Latest Weather Observations for Sydney Harbour

IDN60901

Issued at 1:41 pm EST Saturday 29 April 2017 (issued every 10 minutes, with the page automatically refreshed every 10 minutes)

About weather observations | Map of Sydney area stations | Latest observations for Sydney area | Other Formats
Station Details ID: 066196 Name: WEDDING CAKE WEST Lat: -33.84 Lon: 151.26 Height: 6.0 m
Data from the previous 72 hours. | See also: Recent months at Sydney Harbour
Date/Time
EST
Temp
°C
App
Temp
°C
Dew
Point
°C
Rel
Hum
%
Delta-T
°C
Wind Press
QNH
hPa
Press
MSL
hPa
Rain since
9am
mm
Dir  Spd
km/h
Gust
km/h
Spd
kts
Gust
kts
29/01:30pm 20.7 - - - - SE 9 11 5 6 - - -
29/01:00pm 19.5 - - - - W 6 9 3 5 - - -
29/12:30pm 19.1 - - - - W 9 11 5 6 - - -
29/12:00pm 18.5 - - - - W 11 13 6 7 - - -
29/11:30am 17.9 - - - - W 13 17 7 9 - - -
29/11:00am 17.3 - - - - WSW 13 19 7 10 - - -
29/10:30am 16.7 - - - - WSW 17 20 9 11 - - -
29/10:00am 15.9 - - - - WSW 22 30 12 16 - - -
29/09:30am 15.1 - - - - WSW 24 32 13 17 - - -
29/09:00am 14.5 - - - - W 26 33 14 18 - - -
29/08:30am 13.9 - - - - W 26 32 14 17 - - -
29/08:00am 13.6 - - - - W 26 32 14 17 - - -
29/07:30am 13.4 - - - - W 20 26 11 14 - - -
29/07:00am 12.9 - - - - W 22 30 12 16 - - -
29/06:30am 13.3 - - - - W 17 24 9 13 - - -
29/06:00am 12.8 - - - - W 20 28 11 15 - - -
29/05:30am 12.5 - - - - W 19 24 10 13 - - -
29/05:00am 13.0 - - - - WSW 19 24 10 13 - - -
29/04:30am 13.2 - - - - WSW 20 26 11 14 - - -
29/04:00am 13.4 - - - - WSW 17 20 9 11 - - -
29/03:30am 13.6 - - - - WSW 11 19 6 10 - - -
29/03:00am 13.5 - - - - WSW 17 20 9 11 - - -
29/02:30am 13.6 - - - - W 15 19 8 10 - - -
29/02:00am 14.0 - - - - W 17 20 9 11 - - -
29/01:30am 14.3 - - - - WSW 17 20 9 11 - - -
29/01:00am 14.5 - - - - W 9 11 5 6 - - -
29/12:30am 14.7 - - - - W 11 15 6 8 - - -
29/12:00am 15.1 - - - - W 17 20 9 11 - - -
 
Date/Time
EST
Temp
°C
App
Temp
°C
Dew
Point
°C
Rel
Hum
%
Delta-T
°C
Wind Press
QNH
hPa
Press
MSL
hPa
Rain since
9am
mm
Dir  Spd
km/h
Gust
km/h
Spd
kts
Gust
kts
28/11:30pm 15.1 - - - - W 20 24 11 13 - - -
28/11:00pm 16.4 - - - - S 2 7 1 4 - - -
28/10:30pm 16.5 - - - - S 6 7 3 4 - - -
28/10:00pm 16.8 - - - - CALM 0 0 0 0 - - -
28/09:30pm 16.8 - - - - S 6 7 3 4 - - -
28/09:00pm 16.7 - - - - S 6 7 3 4 - - -
28/08:30pm 17.3 - - - - S 7 9 4 5 - - -
28/08:00pm 17.4 - - - - S 7 9 4 5 - - -
28/07:30pm 17.5 - - - - S 7 9 4 5 - - -
28/07:00pm 18.0 - - - - S 9 11 5 6 - - -
28/06:30pm 17.7 - - - - S 9 13 5 7 - - -
28/06:00pm 18.1 - - - - S 11 13 6 7 - - -
28/05:30pm 18.1 - - - - S 13 17 7 9 - - -
28/05:00pm 18.1 - - - - SSE 13 17 7 9 - - -
28/04:30pm 18.3 - - - - SSE 17 20 9 11 - - -
28/04:00pm 18.4 - - - - SSE 19 24 10 13 - - -
28/03:30pm 18.5 - - - - S 20 24 11 13 - - -
28/03:00pm 18.5 - - - - SSE 22 30 12 16 - - -
28/02:30pm 18.5 - - - - SSE 22 30 12 16 - - -
28/02:00pm 18.2 - - - - SSE 26 32 14 17 - - -
28/01:30pm 18.1 - - - - S 26 32 14 17 - - -
28/01:00pm 18.1 - - - - SSW 19 26 10 14 - - -
28/12:30pm 17.8 - - - - SSW 20 30 11 16 - - -
28/12:00pm 17.4 - - - - SSW 19 26 10 14 - - -
28/11:30am 17.1 - - - - SSW 20 28 11 15 - - -
28/11:00am 16.4 - - - - WSW 17 22 9 12 - - -
28/10:30am 15.8 - - - - W 20 24 11 13 - - -
28/10:00am 15.1 - - - - W 22 26 12 14 - - -
28/09:30am 14.5 - - - - W 24 32 13 17 - - -
28/09:00am 13.8 - - - - WSW 22 28 12 15 - - -
28/08:30am 13.1 - - - - WSW 24 30 13 16 - - -
28/08:00am 12.6 - - - - W 28 35 15 19 - - -
28/07:30am 12.2 - - - - W 28 39 15 21 - - -
28/07:00am 11.9 - - - - W 32 37 17 20 - - -
28/06:30am 11.8 - - - - W 32 39 17 21 - - -
28/06:00am 11.9 - - - - W 28 35 15 19 - - -
28/05:30am 12.3 - - - - W 30 37 16 20 - - -
28/05:00am 12.4 - - - - W 30 37 16 20 - - -
28/04:30am 12.7 - - - - W 30 37 16 20 - - -
28/04:00am 13.0 - - - - W 28 33 15 18 - - -
28/03:30am 13.4 - - - - WSW 28 39 15 21 - - -
28/03:00am 14.1 - - - - WSW 28 35 15 19 - - -
28/02:30am 14.7 - - - - SW 35 41 19 22 - - -
28/02:00am 15.2 - - - - SW 35 43 19 23 - - -
28/01:30am 15.6 - - - - SW 35 48 19 26 - - -
28/01:00am 15.8 - - - - SW 39 52 21 28 - - -
28/12:30am 16.0 - - - - SW 39 50 21 27 - - -
28/12:00am 16.4 - - - - SSW 46 57 25 31 - - -
 
Date/Time
EST
Temp
°C
App
Temp
°C
Dew
Point
°C
Rel
Hum
%
Delta-T
°C
Wind Press
QNH
hPa
Press
MSL
hPa
Rain since
9am
mm
Dir  Spd
km/h
Gust
km/h
Spd
kts
Gust
kts
27/11:30pm 16.8 - - - - SW 39 48 21 26 - - -
27/11:00pm 16.5 - - - - SW 32 39 17 21 - - -
27/10:30pm 16.8 - - - - SW 32 39 17 21 - - -
27/10:00pm 17.0 - - - - SW 30 39 16 21 - - -
27/09:30pm 16.9 - - - - SSW 26 33 14 18 - - -
27/09:00pm 17.4 - - - - SSW 30 35 16 19 - - -
27/08:30pm 17.6 - - - - SW 37 43 20 23 - - -
27/08:00pm 17.7 - - - - SW 37 50 20 27 - - -
27/07:30pm 17.5 - - - - SW 32 43 17 23 - - -
27/07:00pm 17.5 - - - - SW 32 37 17 20 - - -
27/06:30pm 17.4 - - - - SW 32 41 17 22 - - -
27/06:00pm 17.6 - - - - SW 32 39 17 21 - - -
27/05:30pm 17.4 - - - - SW 37 50 20 27 - - -
27/05:00pm 17.5 - - - - SSW 39 44 21 24 - - -
27/04:30pm 17.4 - - - - SSW 39 46 21 25 - - -
27/04:00pm 17.4 - - - - SSW 35 48 19 26 - - -
27/03:30pm 17.4 - - - - SW 39 48 21 26 - - -
27/03:00pm 17.1 - - - - SSW 35 46 19 25 - - -
27/02:30pm 17.4 - - - - SSW 35 44 19 24 - - -
27/02:00pm 16.8 - - - - SSW 41 52 22 28 - - -
27/01:30pm 16.7 - - - - SSW 35 44 19 24 - - -
27/01:00pm 16.5 - - - - SSW 33 43 18 23 - - -
27/12:30pm 16.4 - - - - SSW 33 44 18 24 - - -
27/12:00pm 15.9 - - - - SW 33 46 18 25 - - -
27/11:30am 15.6 - - - - SW 35 46 19 25 - - -
27/11:00am 15.1 - - - - SW 28 35 15 19 - - -
27/10:30am 14.8 - - - - WSW 28 37 15 20 - - -
27/10:00am 14.3 - - - - SW 28 33 15 18 - - -
27/09:30am 13.8 - - - - WSW 26 35 14 19 - - -
27/09:00am 13.1 - - - - WSW 30 37 16 20 - - -
27/08:30am 13.2 - - - - WSW 30 41 16 22 - - -
27/08:00am 13.2 - - - - W 28 37 15 20 - - -
27/07:30am 13.2 - - - - W 26 35 14 19 - - -
27/07:00am 13.8 - - - - WSW 26 41 14 22 - - -
27/06:30am 13.6 - - - - WSW 24 35 13 19 - - -
27/06:00am 13.7 - - - - WSW 28 37 15 20 - - -
27/05:30am 14.1 - - - - WSW 26 32 14 17 - - -
27/05:00am 14.3 - - - - WSW 28 35 15 19 - - -
27/04:30am 14.5 - - - - WSW 28 39 15 21 - - -
27/04:00am 14.6 - - - - WSW 28 35 15 19 - - -
27/03:30am 14.4 - - - - WSW 28 41 15 22 - - -
27/03:00am 15.2 - - - - WSW 33 41 18 22 - - -
27/02:30am 15.4 - - - - WSW 32 39 17 21 - - -
27/02:00am 15.6 - - - - WSW 32 39 17 21 - - -
27/01:30am 16.0 - - - - WSW 32 43 17 23 - - -
27/01:00am 16.0 - - - - WSW 30 35 16 19 - - -
27/12:30am 16.0 - - - - WSW 30 41 16 22 - - -
27/12:00am 15.9 - - - - WSW 28 35 15 19 - - -
 
Date/Time
EST
Temp
°C
App
Temp
°C
Dew
Point
°C
Rel
Hum
%
Delta-T
°C
Wind Press
QNH
hPa
Press
MSL
hPa
Rain since
9am
mm
Dir  Spd
km/h
Gust
km/h
Spd
kts
Gust
kts
26/11:30pm 15.9 - - - - WSW 26 41 14 22 - - -
26/11:00pm 15.8 - - - - WSW 30 41 16 22 - - -
26/10:30pm 15.8 - - - - WSW 28 37 15 20 - - -
26/10:00pm 15.9 - - - - WSW 35 46 19 25 - - -
26/09:30pm 15.9 - - - - WSW 37 50 20 27 - - -
26/09:00pm 15.9 - - - - SW 39 50 21 27 - - -
26/08:30pm 16.3 - - - - WSW 39 50 21 27 - - -
26/08:00pm 16.0 - - - - WSW 32 46 17 25 - - -
26/07:30pm 16.1 - - - - W 32 41 17 22 - - -
26/07:00pm 15.6 - - - - W 26 35 14 19 - - -
26/06:30pm 15.6 - - - - W 28 35 15 19 - - -
26/06:00pm 15.5 - - - - W 24 32 13 17 - - -
26/05:30pm 15.2 - - - - W 19 24 10 13 - - -
26/05:00pm 15.0 - - - - WNW 24 32 13 17 - - -
26/04:30pm 15.2 - - - - W 28 37 15 20 - - -
26/04:00pm 14.3 - - - - W 32 44 17 24 - - -
26/03:30pm 16.1 - - - - W 39 54 21 29 - - -
26/03:00pm 18.5 - - - - WSW 44 72 24 39 - - -
26/02:53pm 19.9 - - - - WNW 26 72 14 39 - - -
26/02:30pm 21.2 - - - - W 24 32 13 17 - - -
26/02:05pm 21.5 - - - - WSW 28 48 15 26 - - -
26/02:00pm 22.0 - - - - WSW 24 33 13 18 - - -

Latest Capital City Observations: Canberra | Sydney | Melbourne | Brisbane | Adelaide | Perth | Hobart | Darwin

Other Formats:

Comma delimited format used in spreadsheet applications
http://www.bom.gov.au/fwo/IDN60901/IDN60901.95766.axf

JavaScript Object Notation format (JSON) in row-major order
http://www.bom.gov.au/fwo/IDN60901/IDN60901.95766.json